Time;durP1;ratioP1;P1;durP2;ratioP2;P2;SDS_P1;SDS_P2;PMS_P1;PMS_P2;Temp;Humidity;BMP_temperature;BMP_pressure;BME280_temperature;BME280_humidity;BME280_pressure;Samples;Min_cycle;Max_cycle;Signal;HPM_P1;HPM_P2
2022/09/07 00:00:49;;;;;;;5.97;1.30;;;19.70;99.90;;;;;;5077301;28;20058;-64
2022/09/07 00:03:15;;;;;;;6.75;1.83;;;19.70;99.90;;;;;;5077299;28;20048;-64
2022/09/07 00:05:46;;;;;;;3.35;1.63;;;19.60;99.90;;;;;;5077310;28;20383;-65
2022/09/07 00:08:14;;;;;;;5.97;1.50;;;19.60;99.90;;;;;;5077452;28;20048;-64
2022/09/07 00:10:39;;;;;;;6.97;1.20;;;19.60;99.90;;;;;;5077509;28;20044;-64
2022/09/07 00:13:06;;;;;;;4.72;1.83;;;19.60;99.90;;;;;;5077223;28;20048;-64
2022/09/07 00:15:33;;;;;;;4.07;1.33;;;19.50;99.90;;;;;;5077036;28;20041;-64
2022/09/07 00:17:59;;;;;;;3.85;1.30;;;19.40;99.90;;;;;;5077021;28;20492;-64
2022/09/07 00:20:25;;;;;;;6.93;1.40;;;19.40;99.90;;;;;;5077019;28;20191;-64
2022/09/07 00:22:51;;;;;;;5.13;1.30;;;19.40;99.90;;;;;;5076991;28;20120;-64
2022/09/07 00:25:16;;;;;;;1.95;1.40;;;19.40;99.90;;;;;;5077013;28;20396;-64
2022/09/07 00:27:42;;;;;;;5.22;1.70;;;19.50;99.90;;;;;;5077211;28;20036;-65
2022/09/07 00:30:09;;;;;;;3.92;1.60;;;19.30;99.90;;;;;;5076874;28;20048;-64
2022/09/07 00:32:34;;;;;;;5.40;1.42;;;19.30;99.90;;;;;;5076894;28;20029;-64
2022/09/07 00:35:00;;;;;;;3.00;1.50;;;19.40;99.90;;;;;;5076297;28;20090;-64
2022/09/07 00:37:26;;;;;;;3.38;1.35;;;19.40;99.90;;;;;;5076195;28;20032;-64
2022/09/07 00:39:52;;;;;;;4.60;1.23;;;19.40;99.90;;;;;;5076805;28;20048;-64
2022/09/07 00:42:20;;;;;;;2.88;1.20;;;19.20;99.90;;;;;;5076871;28;20106;-64
2022/09/07 00:45:05;;;;;;;2.58;1.33;;;19.00;99.90;;;;;;5076565;28;20044;-64
2022/09/07 00:47:40;;;;;;;7.10;1.98;;;;;;;;;;5076534;28;20074;-64
2022/09/07 00:50:12;;;;;;;2.85;1.48;;;18.70;99.90;;;;;;5076373;28;20044;-68
2022/09/07 00:52:40;;;;;;;11.57;2.20;;;18.70;99.90;;;;;;5076392;28;20488;-69
2022/09/07 00:55:11;;;;;;;2.92;1.45;;;18.70;99.90;;;;;;5076401;28;20040;-69
2022/09/07 00:57:40;;;;;;;2.08;1.52;;;18.70;99.90;;;;;;5076394;28;20048;-68
2022/09/07 01:00:07;;;;;;;9.32;1.48;;;18.70;99.90;;;;;;5076447;28;20044;-64
2022/09/07 01:02:33;;;;;;;2.90;1.55;;;18.60;99.90;;;;;;5076247;28;20037;-64
2022/09/07 01:05:12;;;;;;;4.88;1.75;;;18.60;99.90;;;;;;5072896;28;20129;-64
2022/09/07 01:07:38;;;;;;;2.20;1.50;;;18.60;99.90;;;;;;5056151;28;21079;-64
2022/09/07 01:10:04;;;;;;;6.20;1.50;;;18.70;99.90;;;;;;5054208;28;20123;-64
2022/09/07 01:12:30;;;;;;;7.38;1.35;;;18.70;99.90;;;;;;5055930;28;20048;-64
2022/09/07 01:14:56;;;;;;;3.22;1.70;;;18.90;99.90;;;;;;5056248;28;20120;-64
2022/09/07 01:17:37;;;;;;;4.38;1.65;;;18.90;99.90;;;;;;5056090;28;20056;-65
2022/09/07 01:20:21;;;;;;;;;;;19.00;99.90;;;;;;5071755;28;20513;-64
2022/09/07 01:22:57;;;;;;;7.07;1.70;;;19.10;99.90;;;;;;5055935;28;19963;-64
2022/09/07 01:25:44;;;;;;;8.75;1.75;;;19.10;99.90;;;;;;5055713;28;20043;-64
2022/09/07 01:28:23;;;;;;;5.55;1.60;;;19.20;99.90;;;;;;5055670;28;20123;-70
2022/09/07 01:31:10;;;;;;;7.18;2.03;;;19.20;99.90;;;;;;5055880;28;20036;-64
2022/09/07 01:33:50;;;;;;;6.95;1.92;;;19.10;99.90;;;;;;5055756;28;20044;-64
2022/09/07 01:36:33;;;;;;;4.53;1.65;;;18.70;99.90;;;;;;5055812;28;20139;-64
2022/09/07 01:39:02;;;;;;;3.55;1.48;;;18.60;99.90;;;;;;5055497;28;20377;-64
2022/09/07 01:41:51;;;;;;;13.30;2.60;;;18.50;99.90;;;;;;5055529;28;20481;-64
2022/09/07 01:44:24;;;;;;;4.93;1.60;;;18.40;99.90;;;;;;5055688;28;20033;-64
2022/09/07 01:46:59;;;;;;;6.07;1.85;;;18.50;99.90;;;;;;5054999;28;20039;-64
2022/09/07 01:49:49;;;;;;;2.83;1.30;;;18.40;99.90;;;;;;5055092;28;20115;-64
2022/09/07 01:52:33;;;;;;;2.80;1.75;;;18.40;99.90;;;;;;5034565;28;20048;-64
2022/09/07 01:55:12;;;;;;;6.82;1.52;;;18.40;99.90;;;;;;5055260;28;20039;-64
2022/09/07 01:58:10;;;;;;;5.53;1.40;;;18.40;99.90;;;;;;5054863;28;20057;-64
2022/09/07 02:00:39;;;;;;;5.03;1.73;;;18.60;99.90;;;;;;5018705;28;20090;-64
2022/09/07 02:03:27;;;;;;;4.60;1.40;;;18.70;99.90;;;;;;5055138;28;20045;-64
2022/09/07 02:06:17;;;;;;;4.57;1.80;;;18.80;99.90;;;;;;5055152;28;20427;-64
2022/09/07 02:08:56;;;;;;;2.13;1.30;;;18.90;99.90;;;;;;5055216;28;20033;-64
2022/09/07 02:11:29;;;;;;;3.72;1.52;;;19.00;99.90;;;;;;5054886;28;20068;-64
2022/09/07 02:14:02;;;;;;;6.05;1.60;;;19.10;99.90;;;;;;5055001;28;20036;-64
2022/09/07 02:16:30;;;;;;;6.03;1.63;;;19.20;99.90;;;;;;5054879;28;20049;-63
2022/09/07 02:19:04;;;;;;;6.38;2.35;;;19.20;99.90;;;;;;5054646;28;20051;-63
2022/09/07 02:21:41;;;;;;;2.47;1.65;;;19.10;99.90;;;;;;5054581;28;20072;-64
2022/09/07 02:24:14;;;;;;;5.20;1.70;;;19.10;99.90;;;;;;5054474;28;20036;-64
2022/09/07 02:26:44;;;;;;;2.00;1.52;;;19.20;99.90;;;;;;5054325;28;20041;-64
2022/09/07 02:29:10;;;;;;;7.15;1.85;;;19.30;99.90;;;;;;5054565;28;20099;-64
2022/09/07 02:31:36;;;;;;;5.25;1.13;;;19.20;99.90;;;;;;5054595;28;20048;-63
2022/09/07 02:34:02;;;;;;;2.95;1.63;;;19.20;99.90;;;;;;5054577;28;20068;-65
2022/09/07 02:36:32;;;;;;;4.25;1.40;;;19.20;99.90;;;;;;5054512;28;20048;-64
2022/09/07 02:38:58;;;;;;;2.03;1.40;;;19.20;99.90;;;;;;5054553;28;20091;-65
2022/09/07 02:41:36;;;;;;;2.72;1.65;;;19.20;99.90;;;;;;5054486;28;20272;-65
2022/09/07 02:44:07;;;;;;;4.68;1.45;;;19.00;99.90;;;;;;5053140;28;20404;-71
2022/09/07 02:46:54;;;;;;;5.68;1.67;;;18.20;99.90;;;;;;5054410;28;20028;-63
2022/09/07 02:49:50;;;;;;;8.23;1.55;;;18.20;99.90;;;;;;5054449;28;20073;-64
2022/09/07 02:52:53;;;;;;;4.97;1.60;;;18.20;99.90;;;;;;5053190;28;20041;-63
2022/09/07 02:55:53;;;;;;;4.30;1.83;;;18.10;99.90;;;;;;5054415;28;20068;-64
2022/09/07 02:58:32;;;;;;;4.28;1.50;;;17.90;99.90;;;;;;5053959;28;20064;-64
2022/09/07 03:01:22;;;;;;;7.50;1.73;;;18.00;99.90;;;;;;5054175;28;20071;-63
2022/09/07 03:03:57;;;;;;;3.50;1.48;;;18.00;99.90;;;;;;5054231;28;20039;-64
2022/09/07 03:06:31;;;;;;;5.75;1.33;;;18.00;99.90;;;;;;5054210;28;20044;-64
2022/09/07 03:09:03;;;;;;;4.35;1.40;;;18.10;99.90;;;;;;5054251;28;20123;-64
2022/09/07 03:11:29;;;;;;;4.13;1.17;;;18.00;99.90;;;;;;5054082;28;20539;-68
2022/09/07 03:14:17;;;;;;;3.38;1.80;;;17.90;99.90;;;;;;5054188;28;20128;-64
2022/09/07 03:16:44;;;;;;;5.07;1.60;;;18.00;99.90;;;;;;5054040;28;20131;-65
2022/09/07 03:19:10;;;;;;;3.00;1.75;;;17.80;99.90;;;;;;5053952;28;20448;-64
2022/09/07 03:21:36;;;;;;;2.15;1.45;;;17.40;99.90;;;;;;5053774;28;20037;-66
2022/09/07 03:24:02;;;;;;;7.32;1.50;;;17.60;99.90;;;;;;5053351;28;20033;-64
2022/09/07 03:26:28;;;;;;;5.18;1.40;;;17.60;99.90;;;;;;5053751;28;20036;-64
2022/09/07 03:28:53;;;;;;;4.18;1.33;;;17.70;99.90;;;;;;5052662;28;20048;-64
2022/09/07 03:31:19;;;;;;;3.42;1.40;;;17.90;99.90;;;;;;5053785;28;20388;-64
2022/09/07 03:33:45;;;;;;;3.72;1.38;;;18.10;99.90;;;;;;5053958;28;20044;-64
2022/09/07 03:36:11;;;;;;;3.15;1.50;;;18.40;99.90;;;;;;5053789;28;20045;-66
2022/09/07 03:38:37;;;;;;;1.33;1.13;;;18.60;99.90;;;;;;5053647;28;20049;-64
2022/09/07 03:41:05;;;;;;;6.97;1.63;;;18.60;99.90;;;;;;5053621;28;20037;-65
2022/09/07 03:43:31;;;;;;;5.03;2.20;;;18.40;99.90;;;;;;5053842;28;20056;-64
2022/09/07 03:46:03;;;;;;;4.03;1.48;;;18.30;99.90;;;;;;5053757;28;20071;-64
2022/09/07 03:48:31;;;;;;;5.53;1.50;;;18.20;99.90;;;;;;5053787;28;20040;-64
2022/09/07 03:50:59;;;;;;;6.07;1.67;;;18.10;99.90;;;;;;5053645;28;20564;-64
2022/09/07 03:53:25;;;;;;;3.53;1.77;;;18.00;99.90;;;;;;5053624;28;20052;-64
2022/09/07 03:56:03;;;;;;;4.32;1.58;;;17.90;99.90;;;;;;5053404;28;20086;-66
2022/09/07 03:58:31;;;;;;;1.85;1.48;;;17.90;99.90;;;;;;5061909;28;20079;-63
2022/09/07 04:00:57;;;;;;;7.93;2.08;;;18.00;99.90;;;;;;5073454;28;20050;-64
2022/09/07 04:03:23;;;;;;;7.85;1.52;;;18.20;99.90;;;;;;5073704;28;20106;-64
2022/09/07 04:05:49;;;;;;;2.40;1.45;;;18.10;99.90;;;;;;5073828;28;20384;-67
2022/09/07 04:08:15;;;;;;;2.20;1.58;;;18.20;99.90;;;;;;5073597;28;20075;-64
2022/09/07 04:10:41;;;;;;;4.30;1.55;;;18.30;99.90;;;;;;5074316;28;20571;-63
2022/09/07 04:13:07;;;;;;;2.83;1.65;;;18.30;99.90;;;;;;5076745;28;20049;-64
2022/09/07 04:15:33;;;;;;;3.42;1.70;;;18.30;99.90;;;;;;5077173;28;20090;-63
2022/09/07 04:18:00;;;;;;;2.63;1.63;;;18.20;99.90;;;;;;5077114;28;20503;-64
2022/09/07 04:20:26;;;;;;;4.18;1.52;;;18.30;99.90;;;;;;5077081;28;20480;-69
2022/09/07 04:22:52;;;;;;;4.00;1.48;;;18.30;99.90;;;;;;5077042;28;20115;-64
2022/09/07 04:25:18;;;;;;;2.90;1.75;;;18.30;99.90;;;;;;5076936;28;20032;-64
2022/09/07 04:27:44;;;;;;;6.22;2.10;;;18.40;99.90;;;;;;5076686;28;20518;-65
2022/09/07 04:30:11;;;;;;;7.22;1.70;;;18.60;99.90;;;;;;5077014;28;20044;-64
2022/09/07 04:32:36;;;;;;;4.05;1.50;;;18.80;99.90;;;;;;5076837;28;20039;-64
2022/09/07 04:35:02;;;;;;;3.00;1.55;;;18.90;99.90;;;;;;5076754;28;20048;-64
2022/09/07 04:37:28;;;;;;;5.82;1.50;;;19.00;99.90;;;;;;5076456;28;20028;-65
2022/09/07 04:39:54;;;;;;;5.38;2.20;;;19.00;99.90;;;;;;5076493;28;20037;-64
2022/09/07 04:42:20;;;;;;;7.65;1.60;;;18.90;99.90;;;;;;5076732;28;20043;-64
2022/09/07 04:44:49;;;;;;;4.82;1.70;;;18.90;99.90;;;;;;5076793;28;20137;-64
2022/09/07 04:47:14;;;;;;;5.70;2.40;;;18.90;99.90;;;;;;5076718;28;20041;-64
2022/09/07 04:49:40;;;;;;;4.00;1.70;;;18.80;99.90;;;;;;5076699;28;20178;-64
2022/09/07 04:52:06;;;;;;;5.28;1.92;;;18.80;99.90;;;;;;5076543;28;20039;-64
2022/09/07 04:54:32;;;;;;;7.03;1.60;;;18.80;99.90;;;;;;5076675;28;20047;-65
2022/09/07 04:56:58;;;;;;;3.35;1.70;;;18.70;99.90;;;;;;5076408;28;20125;-64
2022/09/07 04:59:24;;;;;;;3.22;1.60;;;18.70;99.90;;;;;;5076526;28;20078;-64
2022/09/07 05:01:50;;;;;;;6.10;1.77;;;18.60;99.90;;;;;;5076496;28;20047;-70
2022/09/07 05:04:16;;;;;;;6.20;1.85;;;18.70;99.90;;;;;;5076383;28;20048;-64
2022/09/07 05:06:42;;;;;;;2.78;1.45;;;18.80;99.90;;;;;;5076434;28;20040;-64
2022/09/07 05:09:08;;;;;;;7.10;1.73;;;18.90;99.90;;;;;;5072710;28;20044;-65
2022/09/07 05:11:34;;;;;;;3.50;1.45;;;18.90;99.90;;;;;;5058426;28;20051;-64
2022/09/07 05:14:02;;;;;;;2.13;1.55;;;19.00;99.90;;;;;;5055585;28;20135;-63
2022/09/07 05:16:29;;;;;;;8.35;1.60;;;18.90;99.90;;;;;;5056497;28;20045;-68
2022/09/07 05:18:57;;;;;;;4.63;1.58;;;18.40;99.90;;;;;;5056071;28;20056;-64
2022/09/07 05:21:26;;;;;;;5.53;1.77;;;18.20;99.90;;;;;;5055911;28;20037;-64
2022/09/07 05:23:53;;;;;;;5.38;1.80;;;18.20;99.90;;;;;;5071348;28;20135;-64
2022/09/07 05:26:21;;;;;;;7.05;2.03;;;18.10;99.90;;;;;;5055915;28;20048;-64
2022/09/07 05:28:47;;;;;;;3.63;1.83;;;17.90;99.90;;;;;;5061554;28;20032;-65
2022/09/07 05:31:16;;;;;;;6.43;1.95;;;18.00;99.90;;;;;;5074079;28;20037;-66
2022/09/07 05:33:50;;;;;;;6.03;2.22;;;18.00;99.90;;;;;;5074396;28;20045;-64
2022/09/07 05:36:16;;;;;;;2.53;1.90;;;18.20;99.90;;;;;;5074942;28;20036;-69
2022/09/07 05:38:42;;;;;;;2.75;2.20;;;18.10;99.90;;;;;;5074442;28;20194;-64
2022/09/07 05:41:17;;;;;;;4.20;1.90;;;18.00;99.90;;;;;;5075541;28;20116;-65
2022/09/07 05:43:43;;;;;;;7.72;2.10;;;18.10;99.90;;;;;;5075640;28;20041;-64
2022/09/07 05:46:10;;;;;;;4.43;2.10;;;18.10;99.90;;;;;;5075530;28;20043;-70
2022/09/07 05:48:36;;;;;;;3.22;2.17;;;18.00;99.90;;;;;;5075352;28;20040;-65
2022/09/07 05:51:03;;;;;;;6.60;2.33;;;17.80;99.90;;;;;;5074862;28;20039;-64
2022/09/07 05:53:29;;;;;;;5.13;1.95;;;17.60;99.90;;;;;;5075072;28;20035;-65
2022/09/07 05:55:59;;;;;;;7.35;1.92;;;17.60;99.90;;;;;;5075214;28;20098;-69
2022/09/07 05:58:26;;;;;;;3.40;1.85;;;17.70;99.90;;;;;;5075318;28;20067;-64
2022/09/07 06:00:52;;;;;;;4.57;2.55;;;17.70;99.90;;;;;;5075180;28;20078;-65
2022/09/07 06:03:18;;;;;;;7.63;2.05;;;17.90;99.90;;;;;;5075011;28;20040;-65
2022/09/07 06:05:44;;;;;;;3.20;1.73;;;18.00;99.90;;;;;;5074800;28;20040;-66
2022/09/07 06:08:09;;;;;;;2.97;1.92;;;18.20;99.90;;;;;;5075085;28;20366;-73
2022/09/07 06:10:37;;;;;;;3.42;1.42;;;;;;;;;;5075062;28;20074;-64
2022/09/07 06:13:03;;;;;;;4.07;1.70;;;18.90;99.90;;;;;;5074847;28;20068;-72
2022/09/07 06:15:32;;;;;;;7.35;2.10;;;19.00;99.90;;;;;;5075138;28;20442;-69
2022/09/07 06:17:58;;;;;;;8.63;2.47;;;18.90;99.90;;;;;;5073446;28;20044;-65
2022/09/07 06:20:25;;;;;;;2.15;1.67;;;18.40;99.90;;;;;;5067466;28;20057;-72
2022/09/07 06:22:51;;;;;;;4.18;1.75;;;18.20;99.90;;;;;;5061843;28;20102;-65
2022/09/07 06:25:17;;;;;;;6.40;1.95;;;18.30;99.90;;;;;;5053206;28;20040;-66
2022/09/07 06:27:46;;;;;;;2.42;1.73;;;18.60;99.90;;;;;;5054326;28;20080;-65
2022/09/07 06:30:12;;;;;;;5.00;2.03;;;18.90;99.90;;;;;;5053145;28;20059;-64
2022/09/07 06:32:38;;;;;;;6.60;2.22;;;18.90;99.90;;;;;;5053071;28;20029;-65
2022/09/07 06:35:04;;;;;;;5.72;1.80;;;18.80;99.90;;;;;;5053413;28;20044;-65
2022/09/07 06:37:30;;;;;;;2.45;1.63;;;18.90;99.90;;;;;;5054069;28;20413;-65
2022/09/07 06:39:57;;;;;;;5.25;1.60;;;18.80;99.90;;;;;;5054452;28;20060;-73
2022/09/07 06:42:23;;;;;;;4.00;2.30;;;18.90;99.90;;;;;;5054247;28;20044;-65
2022/09/07 06:44:48;;;;;;;5.68;2.83;;;19.10;99.90;;;;;;5054298;28;20049;-64
2022/09/07 06:47:14;;;;;;;6.10;2.53;;;18.90;99.90;;;;;;5054013;28;20052;-66
2022/09/07 06:49:40;;;;;;;6.80;2.67;;;18.80;99.90;;;;;;5065160;28;20028;-72
2022/09/07 06:52:06;;;;;;;4.93;2.17;;;18.80;99.90;;;;;;5074370;28;20040;-65
2022/09/07 06:54:32;;;;;;;10.35;2.80;;;18.80;99.90;;;;;;5074077;28;20527;-64
2022/09/07 06:56:58;;;;;;;5.50;1.95;;;18.90;99.90;;;;;;5074010;28;20074;-65
2022/09/07 06:59:23;;;;;;;2.55;1.70;;;19.00;99.90;;;;;;5073659;28;20105;-65
2022/09/07 07:01:49;;;;;;;3.63;1.90;;;18.80;99.90;;;;;;5072818;28;20035;-64
2022/09/07 07:04:15;;;;;;;7.10;2.42;;;18.90;99.90;;;;;;5074107;28;20051;-64
2022/09/07 07:06:41;;;;;;;3.58;1.75;;;18.80;99.90;;;;;;5074122;28;20078;-65
2022/09/07 07:09:10;;;;;;;5.65;2.03;;;19.00;99.90;;;;;;5074070;28;20040;-64
2022/09/07 07:11:38;;;;;;;7.88;2.00;;;19.10;99.90;;;;;;5073858;28;20139;-65
2022/09/07 07:14:04;;;;;;;6.65;1.70;;;19.40;99.90;;;;;;5074104;28;20127;-65
2022/09/07 07:16:30;;;;;;;5.32;1.65;;;20.00;99.90;;;;;;5073865;28;20123;-64
2022/09/07 07:18:56;;;;;;;3.28;1.73;;;20.40;99.90;;;;;;5073610;28;20045;-65
2022/09/07 07:21:23;;;;;;;5.65;1.63;;;20.70;99.90;;;;;;5072903;28;20058;-65
2022/09/07 07:23:50;;;;;;;9.43;1.88;;;20.90;99.90;;;;;;5073963;28;20051;-65
2022/09/07 07:26:18;;;;;;;4.97;1.80;;;21.00;99.90;;;;;;5073896;28;20119;-65
2022/09/07 07:28:50;;;;;;;4.05;1.25;;;21.30;99.90;;;;;;5073810;28;20046;-65
2022/09/07 07:31:20;;;;;;;3.75;1.55;;;;;;;;;;5073830;28;20068;-65
2022/09/07 07:33:47;;;;;;;4.72;1.38;;;21.70;99.90;;;;;;5073781;28;20056;-65
2022/09/07 07:36:18;;;;;;;5.30;1.55;;;21.70;99.90;;;;;;5073589;28;20029;-65
2022/09/07 07:38:46;;;;;;;4.30;1.40;;;21.80;99.90;;;;;;5073525;28;20087;-65
2022/09/07 07:41:14;;;;;;;7.15;1.48;;;22.00;99.90;;;;;;5073728;28;20113;-65
2022/09/07 07:43:40;;;;;;;5.15;1.30;;;22.20;99.90;;;;;;5073502;28;20129;-66
2022/09/07 07:46:06;;;;;;;7.13;2.55;;;22.10;99.90;;;;;;5075166;28;20029;-66
2022/09/07 07:48:34;;;;;;;7.05;1.60;;;22.20;99.90;;;;;;5077419;28;20059;-66
2022/09/07 07:51:06;;;;;;;6.15;1.30;;;22.60;99.90;;;;;;5077504;28;20032;-72
2022/09/07 07:53:35;;;;;;;5.38;2.00;;;23.00;99.90;;;;;;5077322;28;20040;-65
2022/09/07 07:56:02;;;;;;;4.22;1.40;;;23.00;99.90;;;;;;5077211;28;20037;-70
2022/09/07 07:58:29;;;;;;;3.47;1.20;;;;;;;;;;5077354;28;20053;-65
2022/09/07 08:01:10;;;;;;;3.90;1.73;;;23.10;99.90;;;;;;5077458;28;20484;-66
2022/09/07 08:03:38;;;;;;;5.05;1.25;;;23.10;99.90;;;;;;5077226;28;20043;-65
2022/09/07 08:06:13;;;;;;;6.75;1.73;;;22.90;99.90;;;;;;5075777;28;20044;-67
2022/09/07 08:08:39;;;;;;;3.05;1.42;;;23.20;99.90;;;;;;5076927;28;20543;-65
2022/09/07 08:11:08;;;;;;;3.15;1.25;;;22.90;99.90;;;;;;5076928;28;20080;-65
2022/09/07 08:13:35;;;;;;;3.25;1.42;;;22.80;99.90;;;;;;5076800;28;20052;-66
2022/09/07 08:16:02;;;;;;;5.45;1.50;;;23.20;99.90;;;;;;5077144;28;20052;-72
2022/09/07 08:18:28;;;;;;;1.88;1.25;;;22.90;99.90;;;;;;5076827;28;20059;-66
2022/09/07 08:20:59;;;;;;;4.78;1.60;;;23.00;99.90;;;;;;5076863;28;20131;-75
2022/09/07 08:23:25;;;;;;;6.55;2.05;;;23.00;99.90;;;;;;5076799;28;20064;-65
2022/09/07 08:25:57;;;;;;;5.10;1.30;;;23.00;99.90;;;;;;5073823;28;20064;-65
2022/09/07 08:28:24;;;;;;;4.93;1.33;;;23.30;99.90;;;;;;5067668;28;20041;-72
2022/09/07 08:30:50;;;;;;;5.93;1.60;;;23.30;99.90;;;;;;5056701;28;20048;-69
2022/09/07 08:33:16;;;;;;;2.03;1.23;;;23.50;99.90;;;;;;5056623;28;20095;-66
2022/09/07 08:35:42;;;;;;;3.42;1.52;;;23.40;99.90;;;;;;5066244;28;20047;-74
2022/09/07 08:38:08;;;;;;;5.97;1.73;;;23.30;99.90;;;;;;5057640;28;20393;-70
2022/09/07 08:40:37;;;;;;;5.00;1.80;;;23.10;99.90;;;;;;5056585;28;20037;-66
2022/09/07 08:43:33;;;;;;;5.55;1.75;;;23.00;99.90;;;;;;5056536;28;20079;-75
2022/09/07 08:46:09;;;;;;;8.27;1.58;;;22.90;99.90;;;;;;5072538;28;20115;-74
2022/09/07 08:48:35;;;;;;;4.03;1.17;;;23.40;99.90;;;;;;5076462;28;20102;-73
2022/09/07 08:51:31;;;;;;;3.25;1.30;;;24.00;99.90;;;;;;5075127;28;20036;-75
2022/09/07 08:53:58;;;;;;;3.63;1.40;;;24.70;99.90;;;;;;5076426;28;20047;-66
2022/09/07 08:56:34;;;;;;;1.88;1.30;;;24.90;99.90;;;;;;5075823;28;20044;-65
2022/09/07 08:59:10;;;;;;;3.97;1.10;;;23.70;99.90;;;;;;5076317;28;20064;-65
2022/09/07 09:01:41;;;;;;;6.28;0.75;;;23.60;99.90;;;;;;5075972;28;20040;-75
2022/09/07 09:04:22;;;;;;;5.25;1.50;;;24.50;99.90;;;;;;5075812;28;20500;-65
2022/09/07 09:07:06;;;;;;;7.15;1.42;;;24.40;99.90;;;;;;5073898;28;20089;-65
2022/09/07 09:10:00;;;;;;;4.65;1.33;;;24.70;99.90;;;;;;5073734;28;20091;-64
2022/09/07 09:12:54;;;;;;;5.75;1.38;;;24.50;99.90;;;;;;5071216;28;20075;-76
2022/09/07 09:15:33;;;;;;;4.85;1.48;;;24.30;99.90;;;;;;5051340;28;20055;-65
2022/09/07 09:18:28;;;;;;;2.33;1.33;;;23.50;99.90;;;;;;5053141;28;20131;-64
2022/09/07 09:20:56;;;;;;;1.75;1.15;;;23.40;99.90;;;;;;5034638;28;20523;-65
2022/09/07 09:23:37;;;;;;;10.18;1.85;;;23.20;99.90;;;;;;5053649;28;20115;-65
2022/09/07 09:26:24;;;;;;;4.47;1.58;;;23.30;99.90;;;;;;5053143;28;20492;-65
2022/09/07 09:28:50;;;;;;;4.40;1.35;;;22.90;99.90;;;;;;5054291;28;20059;-65
2022/09/07 09:31:21;;;;;;;1.73;1.35;;;23.10;99.90;;;;;;5053921;28;20037;-64
2022/09/07 09:34:06;;;;;;;4.03;1.42;;;23.60;99.90;;;;;;5053341;28;20111;-65
2022/09/07 09:36:39;;;;;;;3.63;1.10;;;23.10;99.90;;;;;;5053597;28;20543;-64
2022/09/07 09:39:36;;;;;;;3.95;1.35;;;23.60;99.90;;;;;;5053107;28;20045;-64
2022/09/07 09:42:15;;;;;;;2.60;1.10;;;23.40;99.90;;;;;;5053225;28;20039;-65
2022/09/07 09:44:42;;;;;;;3.35;0.85;;;22.90;99.90;;;;;;5053252;28;20073;-65
2022/09/07 09:47:29;;;;;;;4.05;1.25;;;22.90;99.90;;;;;;5053108;28;20044;-64
2022/09/07 09:50:04;;;;;;;4.07;1.30;;;22.70;99.90;;;;;;5054246;28;20037;-76
2022/09/07 09:52:34;;;;;;;5.57;2.20;;;22.20;99.90;;;;;;5054904;28;20044;-64
2022/09/07 09:55:00;;;;;;;4.65;1.50;;;22.40;99.90;;;;;;5054357;28;20516;-64
2022/09/07 09:57:49;;;;;;;4.18;1.45;;;22.20;99.90;;;;;;5052978;28;20048;-64
2022/09/07 10:00:22;;;;;;;3.10;1.40;;;22.40;99.90;;;;;;5052871;28;20405;-65
2022/09/07 10:03:01;;;;;;;4.78;1.38;;;22.60;99.90;;;;;;5068159;28;20040;-63
2022/09/07 10:05:40;;;;;;;3.78;1.42;;;22.90;99.90;;;;;;5053200;28;20106;-64
2022/09/07 10:08:20;;;;;;;2.72;1.45;;;22.60;99.90;;;;;;5051947;28;20040;-64
2022/09/07 10:11:07;;;;;;;7.38;1.98;;;22.50;99.90;;;;;;5053816;28;20044;-65
2022/09/07 10:13:53;;;;;;;4.57;1.55;;;22.50;99.90;;;;;;5052532;28;20049;-65
2022/09/07 10:16:39;;;;;;;2.50;1.17;;;22.00;99.90;;;;;;5052881;28;20076;-65
2022/09/07 10:19:06;;;;;;;2.88;1.20;;;21.80;99.90;;;;;;5054145;28;20056;-64
2022/09/07 10:21:32;;;;;;;5.47;1.58;;;21.80;99.90;;;;;;5053030;28;20068;-65
2022/09/07 10:23:58;;;;;;;2.40;1.38;;;21.70;99.90;;;;;;5053044;28;20041;-65
2022/09/07 10:26:35;;;;;;;4.93;1.35;;;21.80;99.90;;;;;;5053095;28;20089;-69
2022/09/07 10:29:23;;;;;;;3.83;1.67;;;21.90;99.90;;;;;;5052135;28;20064;-65
2022/09/07 10:32:01;;;;;;;3.08;1.25;;;22.20;99.90;;;;;;5052143;28;20047;-65
2022/09/07 10:34:54;;;;;;;4.50;1.75;;;22.10;99.90;;;;;;5053866;28;20037;-65
2022/09/07 10:37:47;;;;;;;2.95;1.38;;;22.10;99.90;;;;;;5054147;28;20068;-65
2022/09/07 10:40:32;;;;;;;3.17;1.42;;;22.00;99.90;;;;;;5053726;28;20065;-68
2022/09/07 10:43:12;;;;;;;2.88;1.30;;;21.90;99.90;;;;;;5053499;28;20036;-66
2022/09/07 10:45:55;;;;;;;5.70;2.05;;;21.70;99.90;;;;;;5052263;28;20044;-66
2022/09/07 10:48:59;;;;;;;5.63;1.40;;;21.90;99.90;;;;;;5051734;28;20408;-65
2022/09/07 10:51:55;;;;;;;4.50;1.35;;;22.10;99.90;;;;;;5046296;28;20523;-65
2022/09/07 10:54:49;;;;;;;5.20;1.25;;;22.00;99.90;;;;;;5051488;28;20040;-66
2022/09/07 10:57:30;;;;;;;3.75;1.20;;;22.00;99.90;;;;;;5051398;28;20400;-65
2022/09/07 11:00:10;;;;;;;4.32;1.20;;;21.90;99.90;;;;;;5053167;28;20102;-65
2022/09/07 11:03:12;;;;;;;11.88;1.65;;;22.10;99.90;;;;;;5051707;28;20128;-66
2022/09/07 11:05:47;;;;;;;4.97;1.27;;;22.00;99.90;;;;;;5051311;28;20033;-69
2022/09/07 11:08:16;;;;;;;4.53;1.15;;;22.20;99.90;;;;;;5051099;28;20569;-69
2022/09/07 11:11:06;;;;;;;5.68;1.65;;;23.00;99.90;;;;;;5051827;28;20049;-65
2022/09/07 11:13:34;;;;;;;;;;;22.70;99.90;;;;;;5071573;28;20523;-65
2022/09/07 11:16:23;;;;;;;2.92;1.27;;;22.70;99.90;;;;;;5072820;28;19908;-69
2022/09/07 11:18:52;;;;;;;4.78;1.45;;;22.20;99.90;;;;;;5070969;28;20052;-65
2022/09/07 11:21:25;;;;;;;2.70;1.10;;;22.20;99.90;;;;;;5074564;28;20040;-69
2022/09/07 11:24:02;;;;;;;2.05;0.95;;;22.10;99.90;;;;;;5056603;28;20424;-69
2022/09/07 11:26:40;;;;;;;3.53;1.48;;;22.20;99.90;;;;;;5057419;28;20052;-67
2022/09/07 11:29:24;;;;;;;5.43;0.95;;;22.50;99.90;;;;;;5057442;28;20038;-69
2022/09/07 11:32:02;;;;;;;8.10;1.60;;;22.70;99.90;;;;;;5058086;28;20465;-69
2022/09/07 11:35:06;;;;;;;2.92;1.00;;;22.90;99.90;;;;;;5060384;28;20048;-68
2022/09/07 11:37:41;;;;;;;3.75;1.73;;;22.50;99.90;;;;;;5065849;28;20040;-66
2022/09/07 11:40:09;;;;;;;4.18;1.10;;;22.50;99.90;;;;;;5080172;28;20047;-69
2022/09/07 11:42:48;;;;;;;3.33;1.23;;;22.30;99.90;;;;;;5077719;28;20141;-70
2022/09/07 11:45:40;;;;;;;4.93;1.55;;;22.50;99.90;;;;;;5077978;28;20045;-69
2022/09/07 11:48:09;;;;;;;3.03;1.27;;;23.20;99.90;;;;;;5061820;28;20048;-68
2022/09/07 11:50:41;;;;;;;4.85;1.77;;;23.50;99.90;;;;;;5077010;28;20056;-68
2022/09/07 11:53:19;;;;;;;2.33;1.60;;;23.60;99.90;;;;;;5077276;28;20040;-68
2022/09/07 11:55:49;;;;;;;3.65;1.58;;;23.90;99.90;;;;;;5079257;28;20478;-68
2022/09/07 11:58:44;;;;;;;7.20;1.83;;;24.10;99.90;;;;;;5077864;28;20052;-69
2022/09/07 12:01:28;;;;;;;6.03;1.65;;;24.20;99.90;;;;;;5075179;28;20044;-68
2022/09/07 12:04:28;;;;;;;5.68;1.65;;;24.00;99.90;;;;;;5075695;28;20589;-69
2022/09/07 12:07:16;;;;;;;2.90;1.40;;;24.20;99.90;;;;;;5064442;28;20036;-70
2022/09/07 12:10:03;;;;;;;3.38;2.00;;;23.70;99.90;;;;;;5074038;28;20048;-68
2022/09/07 12:13:05;;;;;;;4.07;1.95;;;23.80;99.90;;;;;;5073532;28;20506;-67
2022/09/07 12:15:49;;;;;;;4.82;1.90;;;24.30;99.90;;;;;;5075556;28;20048;-69
2022/09/07 12:18:52;;;;;;;8.48;1.77;;;23.90;99.90;;;;;;5077108;28;20040;-66
2022/09/07 12:21:40;;;;;;;12.57;2.38;;;23.90;99.90;;;;;;5077819;28;20125;-69
2022/09/07 12:24:42;;;;;;;3.80;1.65;;;23.80;99.90;;;;;;5077515;28;20055;-69
2022/09/07 12:27:20;;;;;;;4.70;1.65;;;24.20;99.90;;;;;;5074026;28;20041;-69
2022/09/07 12:29:49;;;;;;;2.42;1.50;;;24.50;99.90;;;;;;5077567;28;20043;-70
2022/09/07 12:32:45;;;;;;;3.55;1.48;;;24.10;99.90;;;;;;5074032;28;20036;-66
2022/09/07 12:35:35;;;;;;;7.53;1.98;;;23.70;99.90;;;;;;5073354;28;20033;-69
2022/09/07 12:38:16;;;;;;;8.20;1.85;;;23.30;99.90;;;;;;5075089;28;20044;-69
2022/09/07 12:41:02;;;;;;;3.45;1.38;;;23.30;99.90;;;;;;5075288;28;20029;-69
2022/09/07 12:43:57;;;;;;;4.97;1.88;;;23.50;99.90;;;;;;5074641;28;20067;-68
2022/09/07 12:46:32;;;;;;;2.10;1.27;;;23.40;99.90;;;;;;5068734;28;20128;-69
2022/09/07 12:48:57;;;;;;;3.13;2.00;;;23.70;99.90;;;;;;5073796;28;20115;-68
2022/09/07 12:51:34;;;;;;;3.38;1.90;;;23.70;99.90;;;;;;5073900;28;20124;-68
2022/09/07 12:54:17;;;;;;;5.80;1.60;;;23.70;99.90;;;;;;5075341;28;20040;-68
2022/09/07 12:56:49;;;;;;;6.78;1.25;;;23.80;99.90;;;;;;5073994;28;20107;-65
2022/09/07 12:59:39;;;;;;;5.03;1.80;;;24.10;99.90;;;;;;5072532;28;20127;-65
2022/09/07 13:02:27;;;;;;;2.83;1.48;;;24.00;99.90;;;;;;5073570;28;20033;-69
2022/09/07 13:05:26;;;;;;;3.42;1.65;;;24.30;99.90;;;;;;5073110;28;20127;-68
2022/09/07 13:08:06;;;;;;;1.90;1.30;;;24.10;99.90;;;;;;5075648;28;20032;-68
2022/09/07 13:10:34;;;;;;;8.85;1.65;;;24.20;99.90;;;;;;5075851;28;20392;-68
2022/09/07 13:13:04;;;;;;;5.32;1.80;;;24.50;99.90;;;;;;5075583;28;20041;-69
2022/09/07 13:15:37;;;;;;;6.57;1.85;;;24.50;99.90;;;;;;5074380;28;20028;-68
2022/09/07 13:18:04;;;;;;;4.43;1.80;;;25.00;99.90;;;;;;5071566;28;20040;-68
2022/09/07 13:20:30;;;;;;;3.47;1.40;;;25.00;99.90;;;;;;5073019;28;20040;-69